Time;durP1;ratioP1;P1;durP2;ratioP2;P2;SDS_P1;SDS_P2;PMS_P1;PMS_P2;Temp;Humidity;BMP_temperature;BMP_pressure;BME280_temperature;BME280_humidity;BME280_pressure;Samples;Min_cycle;Max_cycle;Signal;HPM_P1;HPM_P2
2023/10/09 00:02:43;;;;;;;12.43;3.47;;;20.80;53.70;;;;;;6190044;28;20300;-66
2023/10/09 00:08:48;;;;;;;10.38;4.35;;;20.70;54.40;;;;;;6191100;28;20466;-66
2023/10/09 00:11:56;;;;;;;10.82;3.58;;;20.70;54.70;;;;;;6204523;28;20069;-66
2023/10/09 00:15:07;;;;;;;10.88;3.92;;;20.60;54.90;;;;;;6215385;28;20545;-68
2023/10/09 00:18:11;;;;;;;9.68;3.28;;;20.60;55.10;;;;;;6215191;28;20041;-66
2023/10/09 00:21:20;;;;;;;11.13;3.88;;;20.60;55.40;;;;;;6213777;28;20433;-66
2023/10/09 00:24:23;;;;;;;10.75;3.67;;;20.50;55.50;;;;;;6215238;28;20478;-65
2023/10/09 00:27:31;;;;;;;6.35;3.20;;;20.50;55.70;;;;;;6213525;28;20062;-65
2023/10/09 00:30:32;;;;;;;9.80;3.27;;;20.40;55.70;;;;;;6213645;28;20033;-67
2023/10/09 00:33:36;;;;;;;10.38;3.83;;;20.40;55.70;;;;;;6213437;28;20026;-66
2023/10/09 00:36:49;;;;;;;12.15;3.78;;;20.40;55.70;;;;;;6215450;28;20115;-66
2023/10/09 00:39:57;;;;;;;15.90;3.80;;;20.40;55.70;;;;;;6213778;28;20148;-66
2023/10/09 00:43:02;;;;;;;11.25;3.35;;;20.40;55.70;;;;;;6215436;28;20029;-65
2023/10/09 00:49:22;;;;;;;7.25;3.70;;;20.30;56.20;;;;;;6215188;28;20038;-66
2023/10/09 00:52:36;;;;;;;7.75;2.88;;;20.30;56.40;;;;;;6215583;28;20034;-66
2023/10/09 00:58:40;;;;;;;6.00;3.03;;;20.20;56.40;;;;;;6215321;28;20041;-65
2023/10/09 01:02:04;;;;;;;7.78;2.88;;;20.20;57.10;;;;;;6213432;28;20061;-67
2023/10/09 01:05:18;;;;;;;9.30;3.45;;;20.20;56.50;;;;;;6213369;28;20038;-66
2023/10/09 01:11:30;;;;;;;9.40;3.05;;;20.20;56.70;;;;;;6218492;28;20025;-66
2023/10/09 01:14:36;;;;;;;7.10;3.50;;;20.10;56.80;;;;;;6218310;28;20390;-66
2023/10/09 01:17:39;;;;;;;9.25;3.30;;;20.10;56.90;;;;;;6219829;28;20041;-66
2023/10/09 01:20:45;;;;;;;7.93;3.40;;;20.10;57.00;;;;;;6193917;28;20038;-66
2023/10/09 01:27:15;;;;;;;8.65;3.80;;;20.00;57.10;;;;;;6193721;28;20145;-66
2023/10/09 01:30:16;;;;;;;9.65;3.08;;;19.90;57.30;;;;;;6194787;28;20030;-66
2023/10/09 01:33:24;;;;;;;7.93;3.28;;;19.90;57.50;;;;;;6195085;28;20030;-67
2023/10/09 01:36:31;;;;;;;7.65;3.03;;;19.80;57.60;;;;;;6195043;28;20061;-66
2023/10/09 01:39:40;;;;;;;8.60;3.00;;;19.70;57.90;;;;;;6192743;28;20042;-67
2023/10/09 01:42:47;;;;;;;9.65;3.80;;;19.70;57.90;;;;;;6193276;28;20038;-67
2023/10/09 01:45:48;;;;;;;10.10;3.60;;;19.60;58.00;;;;;;6180010;28;20101;-66
2023/10/09 01:48:49;;;;;;;6.10;2.90;;;19.50;58.30;;;;;;6216841;28;20030;-65
2023/10/09 01:51:50;;;;;;;22.63;3.15;;;19.50;58.40;;;;;;6216839;28;20048;-65
2023/10/09 01:54:53;;;;;;;9.85;2.55;;;19.40;58.40;;;;;;6218560;28;20661;-65
2023/10/09 01:57:54;;;;;;;13.57;3.65;;;19.40;58.30;;;;;;6218043;28;20129;-65
2023/10/09 02:00:55;;;;;;;11.98;3.33;;;19.40;58.20;;;;;;6187030;28;20515;-66
2023/10/09 02:04:03;;;;;;;12.05;3.22;;;19.50;58.20;;;;;;6208469;28;20068;-66
2023/10/09 02:07:07;;;;;;;6.85;3.17;;;19.40;58.00;;;;;;6208687;28;20722;-66
2023/10/09 02:10:25;;;;;;;10.90;3.33;;;19.50;58.00;;;;;;6212205;28;20030;-68
2023/10/09 02:13:35;;;;;;;10.95;3.17;;;19.40;58.00;;;;;;6217808;28;20605;-66
2023/10/09 02:16:41;;;;;;;15.95;3.40;;;19.40;58.10;;;;;;6216135;28;20470;-68
2023/10/09 02:19:48;;;;;;;8.32;2.80;;;19.40;58.20;;;;;;6216342;28;20782;-65
2023/10/09 02:22:48;;;;;;;10.52;2.90;;;19.30;58.20;;;;;;6217997;28;20057;-67
2023/10/09 02:25:53;;;;;;;8.57;3.00;;;19.30;58.30;;;;;;6217558;28;20032;-65
2023/10/09 02:29:14;;;;;;;8.70;2.88;;;19.30;58.40;;;;;;6217619;28;20022;-65
2023/10/09 02:32:25;;;;;;;8.23;3.55;;;19.20;58.50;;;;;;6217466;28;20034;-65
2023/10/09 02:35:38;;;;;;;12.90;3.28;;;19.20;58.50;;;;;;6216811;28;20558;-67
2023/10/09 02:38:40;;;;;;;12.80;3.25;;;19.20;58.50;;;;;;6216003;28;20034;-65
2023/10/09 02:41:49;;;;;;;8.90;3.13;;;19.20;58.60;;;;;;6217336;28;20034;-65
2023/10/09 02:44:51;;;;;;;10.82;3.00;;;19.20;58.70;;;;;;6216971;28;20168;-65
2023/10/09 02:47:55;;;;;;;8.85;3.20;;;19.20;58.50;;;;;;6215487;28;20037;-67
2023/10/09 02:50:57;;;;;;;7.05;2.97;;;19.10;59.00;;;;;;6215134;28;20095;-67
2023/10/09 02:54:18;;;;;;;7.57;2.97;;;19.10;59.10;;;;;;6214901;28;20030;-65
2023/10/09 02:57:23;;;;;;;13.45;3.70;;;19.10;59.30;;;;;;6216777;28;20033;-67
2023/10/09 03:00:29;;;;;;;9.73;3.22;;;19.10;59.40;;;;;;6216542;28;20034;-65
2023/10/09 03:03:30;;;;;;;7.20;2.72;;;19.10;59.40;;;;;;6215245;28;20053;-66
2023/10/09 03:06:34;;;;;;;16.05;3.88;;;19.10;59.40;;;;;;6214730;28;20046;-66
2023/10/09 03:09:35;;;;;;;9.07;3.22;;;19.10;59.40;;;;;;6216357;28;20030;-66
2023/10/09 03:12:36;;;;;;;9.10;3.50;;;19.10;59.50;;;;;;6190579;28;20501;-67
2023/10/09 03:15:38;;;;;;;13.73;3.63;;;19.00;59.50;;;;;;6190952;28;20026;-66
2023/10/09 03:18:40;;;;;;;10.68;3.47;;;19.00;59.60;;;;;;6191742;28;20037;-65
2023/10/09 03:21:41;;;;;;;8.65;3.20;;;19.00;59.70;;;;;;6192137;28;20034;-66
2023/10/09 03:24:44;;;;;;;10.20;3.13;;;19.00;59.70;;;;;;6191852;28;20066;-67
2023/10/09 03:27:45;;;;;;;11.20;3.25;;;18.90;59.60;;;;;;6190307;28;20050;-67
2023/10/09 03:30:47;;;;;;;9.07;3.25;;;18.90;59.60;;;;;;6191084;28;20030;-66
2023/10/09 03:33:48;;;;;;;11.13;3.58;;;18.90;59.60;;;;;;6192165;28;20036;-65
2023/10/09 03:36:53;;;;;;;13.52;3.67;;;18.90;59.50;;;;;;6174191;28;20030;-66
2023/10/09 03:40:00;;;;;;;9.07;3.55;;;19.00;59.60;;;;;;6173510;28;20035;-67
2023/10/09 03:43:01;;;;;;;17.48;3.63;;;18.90;59.60;;;;;;6199799;28;20058;-66
2023/10/09 03:46:04;;;;;;;12.35;3.78;;;18.90;59.60;;;;;;6214057;28;20450;-66
2023/10/09 03:49:10;;;;;;;12.93;3.30;;;18.90;59.60;;;;;;6214110;28;20553;-66
2023/10/09 03:52:11;;;;;;;14.88;3.53;;;18.90;59.70;;;;;;6214282;28;20038;-66
2023/10/09 03:55:12;;;;;;;6.82;2.83;;;18.90;59.80;;;;;;6213998;28;20026;-67
2023/10/09 03:58:14;;;;;;;10.32;3.42;;;18.80;59.80;;;;;;6215040;28;20033;-67
2023/10/09 04:01:27;;;;;;;9.82;3.55;;;18.80;59.80;;;;;;6207087;28;20029;-68
2023/10/09 04:04:28;;;;;;;11.18;3.63;;;18.80;59.90;;;;;;6215357;28;20030;-66
2023/10/09 04:07:31;;;;;;;9.20;3.30;;;18.80;60.00;;;;;;6215320;28;20033;-65
2023/10/09 04:10:44;;;;;;;10.35;3.50;;;18.80;60.00;;;;;;6213301;28;20132;-65
2023/10/09 04:13:49;;;;;;;8.75;3.42;;;18.80;60.00;;;;;;6213594;28;20122;-65
2023/10/09 04:17:05;;;;;;;9.63;2.95;;;18.80;59.90;;;;;;6215168;28;20029;-67
2023/10/09 04:23:34;;;;;;;12.05;3.60;;;18.80;59.90;;;;;;6215068;28;20118;-66
2023/10/09 04:26:37;;;;;;;13.07;3.97;;;18.80;59.90;;;;;;6213378;28;20038;-66
2023/10/09 04:29:38;;;;;;;12.05;2.97;;;18.80;59.80;;;;;;6214891;28;20038;-66
2023/10/09 04:32:40;;;;;;;11.10;3.80;;;18.70;59.70;;;;;;6214897;28;20108;-66
2023/10/09 04:35:45;;;;;;;13.02;3.25;;;18.80;59.30;;;;;;6214615;28;20037;-65
2023/10/09 04:42:36;;;;;;;12.65;3.47;;;18.80;58.40;;;;;;6175045;28;20030;-65
2023/10/09 04:49:15;;;;;;;8.55;3.30;;;18.70;57.60;;;;;;6196893;28;20026;-66
2023/10/09 04:55:38;;;;;;;9.48;3.00;;;18.70;57.60;;;;;;6214894;28;20030;-66
2023/10/09 04:58:39;;;;;;;12.38;3.63;;;18.70;57.70;;;;;;6213663;28;20064;-67
2023/10/09 05:01:57;;;;;;;5.50;2.70;;;18.60;57.80;;;;;;6212907;28;20638;-67
2023/10/09 05:05:47;;;;;;;8.50;3.30;;;19.10;58.20;;;;;;6213947;28;20037;-67
2023/10/09 05:08:45;;;;;;;8.57;3.45;;;18.60;58.20;;;;;;6212030;28;20397;-66
2023/10/09 05:15:09;;;;;;;11.50;3.65;;;18.60;58.70;;;;;;6211670;28;20038;-67
2023/10/09 05:18:16;;;;;;;10.02;2.97;;;18.60;58.80;;;;;;6191134;28;20371;-66
2023/10/09 05:21:52;;;;;;;13.98;3.70;;;18.60;58.80;;;;;;6214118;28;20034;-66
2023/10/09 05:24:46;;;;;;;10.32;4.35;;;18.60;59.00;;;;;;6211331;28;20388;-66
2023/10/09 05:28:11;;;;;;;10.15;2.95;;;18.60;59.10;;;;;;6213336;28;20033;-67
2023/10/09 05:31:44;;;;;;;10.13;3.22;;;18.60;59.80;;;;;;6211126;28;20370;-67
2023/10/09 05:34:34;;;;;;;12.40;3.22;;;18.60;59.10;;;;;;6211497;28;20379;-66
2023/10/09 05:37:43;;;;;;;11.15;3.10;;;18.60;59.10;;;;;;6189769;28;20058;-67
2023/10/09 05:40:53;;;;;;;11.15;3.85;;;18.60;58.90;;;;;;6205578;28;20029;-66
2023/10/09 05:47:31;;;;;;;13.40;3.20;;;18.70;59.20;;;;;;6212335;28;20042;-67
2023/10/09 05:51:10;;;;;;;12.48;4.13;;;18.60;59.30;;;;;;6211740;28;20517;-66
2023/10/09 05:54:23;;;;;;;8.77;3.10;;;18.60;59.50;;;;;;6217126;28;20042;-66
2023/10/09 06:04:19;;;;;;;13.70;4.88;;;18.60;59.80;;;;;;6214508;28;20554;-66
2023/10/09 06:07:40;;;;;;;11.68;4.18;;;18.50;60.00;;;;;;6215978;28;20048;-67
2023/10/09 06:10:41;;;;;;;18.98;4.53;;;18.40;59.70;;;;;;6216049;28;20033;-67
2023/10/09 06:14:03;;;;;;;15.45;4.00;;;18.40;60.30;;;;;;6217710;28;20030;-66
2023/10/09 06:21:07;;;;;;;14.88;3.90;;;18.40;60.40;;;;;;6217759;28;20459;-67
2023/10/09 06:24:17;;;;;;;6.37;3.03;;;18.30;60.30;;;;;;6218125;28;20078;-67
2023/10/09 06:27:25;;;;;;;11.60;4.03;;;18.30;60.40;;;;;;6215644;28;20037;-68
2023/10/09 06:30:27;;;;;;;10.82;3.75;;;18.30;60.50;;;;;;6200102;28;20025;-66
2023/10/09 06:33:57;;;;;;;17.00;4.35;;;18.30;60.60;;;;;;6192087;28;20713;-67
2023/10/09 06:36:54;;;;;;;14.35;4.07;;;18.30;60.60;;;;;;6191591;28;20109;-67
2023/10/09 06:42:57;;;;;;;17.67;4.05;;;18.20;60.80;;;;;;6192327;28;20098;-66
2023/10/09 06:46:36;;;;;;;12.77;3.65;;;18.20;60.90;;;;;;6190510;28;20045;-66
2023/10/09 06:49:29;;;;;;;11.98;4.13;;;18.20;61.10;;;;;;6199844;28;20120;-66
2023/10/09 06:52:57;;;;;;;10.35;3.60;;;18.20;61.20;;;;;;6214772;28;20100;-66
2023/10/09 06:55:51;;;;;;;11.93;3.50;;;18.20;61.20;;;;;;6216417;28;20045;-66
2023/10/09 06:58:55;;;;;;;18.63;3.72;;;18.30;61.30;;;;;;6216418;28;20117;-67
2023/10/09 07:05:17;;;;;;;11.02;3.60;;;18.40;61.30;;;;;;6190386;28;20037;-68
2023/10/09 07:17:45;;;;;;;7.63;3.35;;;18.50;60.60;;;;;;6188231;28;20057;-68
2023/10/09 07:20:58;;;;;;;16.15;3.78;;;18.60;60.40;;;;;;6187730;28;20538;-67
2023/10/09 07:24:13;;;;;;;12.93;3.13;;;17.00;58.80;;;;;;6188129;28;20042;-66
2023/10/09 07:27:16;;;;;;;17.10;3.40;;;18.60;60.00;;;;;;6171052;28;20447;-65
2023/10/09 07:36:56;;;;;;;11.32;3.28;;;18.90;59.80;;;;;;6164200;28;20086;-66
2023/10/09 07:39:57;;;;;;;9.75;3.42;;;19.00;59.70;;;;;;6163429;28;20156;-66
2023/10/09 07:43:05;;;;;;;9.98;3.50;;;19.00;59.40;;;;;;6163928;28;20042;-66
2023/10/09 07:49:31;;;;;;;18.55;3.80;;;19.30;59.00;;;;;;6210721;28;20069;-67
2023/10/09 07:52:32;;;;;;;9.05;3.17;;;19.40;58.70;;;;;;6214904;28;20052;-67
2023/10/09 07:55:39;;;;;;;22.13;4.10;;;19.50;58.50;;;;;;6214867;28;20038;-66
2023/10/09 07:58:46;;;;;;;15.98;3.35;;;19.60;58.20;;;;;;6213244;28;20151;-66
2023/10/09 08:02:02;;;;;;;19.50;4.10;;;20.10;58.20;;;;;;6215277;28;20116;-68
2023/10/09 08:05:06;;;;;;;10.18;3.60;;;19.80;57.80;;;;;;6214880;28;20430;-66
2023/10/09 08:08:39;;;;;;;8.68;3.20;;;19.90;57.60;;;;;;6213478;28;20038;-67
2023/10/09 08:14:48;;;;;;;10.50;3.65;;;20.10;57.00;;;;;;6214800;28;20116;-65
2023/10/09 08:17:53;;;;;;;10.07;3.50;;;20.30;56.80;;;;;;6214852;28;20033;-67
2023/10/09 08:24:04;;;;;;;17.05;4.00;;;20.50;56.20;;;;;;6206586;28;20030;-67
2023/10/09 08:30:28;;;;;;;18.33;3.70;;;20.70;55.60;;;;;;6214262;28;20096;-66
2023/10/09 08:36:42;;;;;;;9.63;3.00;;;21.00;55.10;;;;;;6214699;28;20037;-65
2023/10/09 08:39:45;;;;;;;18.15;3.92;;;21.10;54.90;;;;;;6213520;28;20087;-66
2023/10/09 08:42:53;;;;;;;15.20;4.80;;;21.30;54.60;;;;;;6204946;28;20751;-67
2023/10/09 08:46:02;;;;;;;21.02;3.88;;;21.30;54.20;;;;;;6214122;28;20100;-66
2023/10/09 08:49:05;;;;;;;12.05;3.38;;;21.40;53.80;;;;;;6214221;28;20135;-66
2023/10/09 08:52:06;;;;;;;13.32;3.38;;;21.70;53.20;;;;;;6214078;28;20029;-67
2023/10/09 08:55:08;;;;;;;13.80;3.35;;;21.80;52.70;;;;;;6212078;28;20447;-65
2023/10/09 08:58:20;;;;;;;14.43;4.82;;;21.90;52.50;;;;;;6214101;28;20112;-66
2023/10/09 09:01:22;;;;;;;13.60;3.75;;;22.00;52.40;;;;;;6213972;28;20060;-68
2023/10/09 09:04:40;;;;;;;12.75;3.58;;;22.20;52.10;;;;;;6213477;28;20102;-67
2023/10/09 09:07:42;;;;;;;21.10;3.55;;;22.30;52.00;;;;;;6214473;28;20034;-67
2023/10/09 09:10:47;;;;;;;12.30;3.95;;;22.50;51.70;;;;;;6213363;28;20152;-66
2023/10/09 09:14:04;;;;;;;21.88;6.18;;;22.60;51.10;;;;;;6212544;28;20030;-66
2023/10/09 09:17:11;;;;;;;26.23;4.68;;;22.70;51.00;;;;;;6214060;28;20042;-67
2023/10/09 09:20:23;;;;;;;18.02;4.85;;;22.80;50.90;;;;;;6213581;28;20108;-66
2023/10/09 09:23:26;;;;;;;13.38;5.68;;;23.00;50.40;;;;;;6213912;28;20066;-68
2023/10/09 09:26:44;;;;;;;18.70;5.00;;;23.10;49.90;;;;;;6213709;28;20069;-65
2023/10/09 09:29:52;;;;;;;11.07;4.80;;;23.20;49.70;;;;;;6217035;28;20088;-66
2023/10/09 09:36:12;;;;;;;13.95;5.05;;;23.40;49.20;;;;;;6218619;28;20304;-67
2023/10/09 09:39:19;;;;;;;24.48;7.68;;;23.50;49.00;;;;;;6218116;28;20397;-68
2023/10/09 09:42:25;;;;;;;16.58;6.00;;;23.60;48.70;;;;;;6218284;28;20061;-67
2023/10/09 09:45:26;;;;;;;18.88;5.53;;;23.80;48.70;;;;;;6218133;28;20034;-68
2023/10/09 09:48:27;;;;;;;30.08;8.20;;;23.90;48.00;;;;;;6217951;28;20053;-65
2023/10/09 09:51:32;;;;;;;14.18;4.10;;;24.00;47.30;;;;;;6218585;28;20494;-67
2023/10/09 09:54:36;;;;;;;16.60;6.22;;;24.10;47.20;;;;;;6217946;28;20117;-66
2023/10/09 09:57:39;;;;;;;17.48;4.90;;;24.20;47.00;;;;;;6218229;28;20034;-68
2023/10/09 10:03:47;;;;;;;21.73;5.63;;;24.50;46.20;;;;;;6218141;28;20618;-66
2023/10/09 10:06:50;;;;;;;18.97;4.77;;;24.60;45.50;;;;;;6217610;28;20065;-66
2023/10/09 10:09:54;;;;;;;15.48;4.25;;;24.70;45.00;;;;;;6217377;28;20797;-66
2023/10/09 10:13:01;;;;;;;13.80;3.92;;;24.80;44.80;;;;;;6217178;28;20784;-67
2023/10/09 10:16:12;;;;;;;17.65;4.13;;;24.90;44.70;;;;;;6217613;28;20474;-67
2023/10/09 10:22:37;;;;;;;9.82;3.03;;;25.40;44.30;;;;;;6217654;28;20042;-68
2023/10/09 10:25:49;;;;;;;8.32;3.50;;;25.90;43.80;;;;;;6217223;28;20049;-66
2023/10/09 10:29:33;;;;;;;9.48;2.78;;;26.10;42.90;;;;;;6217192;28;20471;-66
2023/10/09 10:32:53;;;;;;;6.13;2.55;;;26.30;42.30;;;;;;6217322;28;20501;-66
2023/10/09 10:35:57;;;;;;;17.55;4.05;;;26.50;40.90;;;;;;6217103;28;20098;-68
2023/10/09 10:45:43;;;;;;;16.77;3.47;;;27.00;39.70;;;;;;6216584;28;20506;-67
2023/10/09 10:48:47;;;;;;;18.58;3.72;;;27.30;39.50;;;;;;6217504;28;20493;-66
2023/10/09 10:51:49;;;;;;;11.02;3.45;;;27.60;39.30;;;;;;6217862;28;20030;-69
2023/10/09 10:55:17;;;;;;;9.55;3.13;;;27.90;38.60;;;;;;6218127;28;20068;-68
2023/10/09 10:58:47;;;;;;;9.60;3.22;;;28.20;38.00;;;;;;6216161;28;20387;-68
2023/10/09 11:01:58;;;;;;;10.07;3.00;;;28.50;37.20;;;;;;6217228;28;20046;-66
2023/10/09 11:05:23;;;;;;;9.40;3.00;;;28.90;36.20;;;;;;6215583;28;20033;-66
2023/10/09 11:08:31;;;;;;;7.88;2.60;;;29.10;35.50;;;;;;6217374;28;20021;-67
2023/10/09 11:11:32;;;;;;;6.97;2.70;;;29.50;34.50;;;;;;6215179;28;20041;-67
2023/10/09 11:14:44;;;;;;;8.52;2.83;;;29.80;34.10;;;;;;6216561;28;20706;-68
2023/10/09 11:17:45;;;;;;;9.75;2.78;;;30.20;33.80;;;;;;6215127;28;20042;-67
2023/10/09 11:27:28;;;;;;;;;;;31.40;32.60;;;;;;6216710;28;19992;-67
2023/10/09 11:30:34;;;;;;;18.92;3.05;;;31.70;32.10;;;;;;6196746;28;19913;-66
2023/10/09 11:33:45;;;;;;;9.65;2.83;;;32.20;31.90;;;;;;6191181;28;20037;-66
2023/10/09 11:36:52;;;;;;;8.23;3.55;;;32.70;31.30;;;;;;6191051;28;20033;-67
2023/10/09 11:39:53;;;;;;;;;;;33.20;30.80;;;;;;6191165;28;20502;-68
2023/10/09 11:42:59;;;;;;;15.85;3.90;;;33.50;29.80;;;;;;6191095;28;20024;-67
2023/10/09 11:46:13;;;;;;;9.55;3.20;;;33.80;29.80;;;;;;6190847;28;20031;-67
2023/10/09 11:52:38;;;;;;;7.30;2.60;;;34.70;29.20;;;;;;6215131;28;20030;-68
2023/10/09 11:55:38;;;;;;;18.65;3.47;;;35.20;28.70;;;;;;6215346;28;20032;-67
2023/10/09 11:58:40;;;;;;;16.13;3.25;;;35.70;28.20;;;;;;6215181;28;20026;-67
2023/10/09 12:01:52;;;;;;;17.20;4.85;;;36.20;27.80;;;;;;6215233;28;20112;-67
2023/10/09 12:04:56;;;;;;;20.63;3.65;;;36.60;27.30;;;;;;6215099;28;20088;-66
2023/10/09 12:07:59;;;;;;;15.40;2.83;;;37.10;26.70;;;;;;6215272;28;20029;-69
2023/10/09 12:11:08;;;;;;;14.68;3.00;;;37.40;26.30;;;;;;6197535;28;20037;-68
2023/10/09 12:14:09;;;;;;;10.57;3.75;;;37.60;26.20;;;;;;6214924;28;20034;-67
2023/10/09 12:17:10;;;;;;;15.43;3.22;;;37.90;26.00;;;;;;6215244;28;20109;-67
2023/10/09 12:20:29;;;;;;;17.08;3.13;;;38.20;25.70;;;;;;6214892;28;20044;-68
2023/10/09 12:23:37;;;;;;;8.93;3.05;;;38.50;25.50;;;;;;6214584;28;20037;-68
2023/10/09 12:26:40;;;;;;;14.38;3.05;;;38.80;25.60;;;;;;6213464;28;20864;-69
2023/10/09 12:29:44;;;;;;;13.57;3.17;;;39.10;24.80;;;;;;6196939;28;20038;-68
2023/10/09 12:32:45;;;;;;;12.43;3.65;;;39.20;24.50;;;;;;6215111;28;20057;-67
2023/10/09 12:35:47;;;;;;;12.38;3.15;;;38.70;24.70;;;;;;6214698;28;20074;-67
2023/10/09 12:38:58;;;;;;;10.15;3.03;;;37.80;25.10;;;;;;6214337;28;20040;-68
2023/10/09 12:42:06;;;;;;;13.50;3.38;;;37.10;25.50;;;;;;6196947;28;20038;-69
2023/10/09 12:45:10;;;;;;;11.95;3.45;;;36.70;25.70;;;;;;6214937;28;20662;-68
2023/10/09 12:48:12;;;;;;;12.18;3.25;;;36.50;25.70;;;;;;6214206;28;20098;-68
2023/10/09 12:51:17;;;;;;;12.43;3.28;;;36.30;25.60;;;;;;6214543;28;20041;-69
2023/10/09 12:54:24;;;;;;;11.75;2.75;;;35.80;26.10;;;;;;6212854;28;20409;-68
2023/10/09 12:57:25;;;;;;;8.25;3.03;;;34.90;26.70;;;;;;6198008;28;20029;-68
2023/10/09 13:00:27;;;;;;;7.47;2.35;;;34.20;27.40;;;;;;6203588;28;20030;-67
2023/10/09 13:03:32;;;;;;;10.65;2.90;;;33.70;28.00;;;;;;6195537;28;20088;-68
2023/10/09 13:06:35;;;;;;;14.05;4.47;;;33.20;28.50;;;;;;6193205;28;20132;-67
2023/10/09 13:09:42;;;;;;;12.52;3.15;;;32.80;29.00;;;;;;6195093;28;20038;-69
2023/10/09 13:12:43;;;;;;;18.75;2.90;;;32.50;29.30;;;;;;6215390;28;20045;-67
2023/10/09 13:15:44;;;;;;;9.95;2.97;;;32.20;29.60;;;;;;6219493;28;20030;-69
2023/10/09 13:18:49;;;;;;;15.43;3.30;;;31.90;29.80;;;;;;6219019;28;20100;-68
2023/10/09 13:21:50;;;;;;;23.35;3.25;;;31.70;30.00;;;;;;6217954;28;20437;-67
2023/10/09 13:24:53;;;;;;;12.73;2.90;;;31.40;30.40;;;;;;6201396;28;20115;-66
2023/10/09 13:27:53;;;;;;;14.35;2.92;;;31.20;30.70;;;;;;6194995;28;20117;-67
2023/10/09 13:30:54;;;;;;;22.25;3.78;;;31.00;31.00;;;;;;6194693;28;20040;-68
2023/10/09 13:33:56;;;;;;;25.92;5.15;;;30.90;31.30;;;;;;6194717;28;20084;-68
2023/10/09 13:36:59;;;;;;;11.70;3.20;;;30.70;31.60;;;;;;6193044;28;20079;-68
2023/10/09 13:40:08;;;;;;;4.78;2.17;;;30.60;31.70;;;;;;6194147;28;20448;-68
2023/10/09 13:43:16;;;;;;;14.40;3.15;;;30.50;31.90;;;;;;6193157;28;20534;-67
2023/10/09 13:46:17;;;;;;;;;;;30.40;32.00;;;;;;6194815;28;20061;-66
2023/10/09 13:49:22;;;;;;;11.52;3.13;;;30.40;32.10;;;;;;6203852;28;19981;-66
2023/10/09 13:52:23;;;;;;;18.20;3.55;;;30.30;32.20;;;;;;6217023;28;20037;-67
2023/10/09 13:55:31;;;;;;;15.75;3.00;;;30.30;32.30;;;;;;6219110;28;20161;-68
2023/10/09 13:58:34;;;;;;;7.28;2.60;;;30.20;32.40;;;;;;6218397;28;20113;-68
2023/10/09 14:01:35;;;;;;;13.73;3.00;;;30.20;32.60;;;;;;6209979;28;20042;-67
2023/10/09 14:04:36;;;;;;;10.25;2.65;;;30.20;32.70;;;;;;6193848;28;20085;-67
2023/10/09 14:07:37;;;;;;;10.93;2.78;;;30.10;32.70;;;;;;6193804;28;20071;-66
2023/10/09 14:10:39;;;;;;;12.40;2.53;;;30.10;32.90;;;;;;6194074;28;20030;-67
2023/10/09 14:13:40;;;;;;;15.07;2.92;;;30.00;32.90;;;;;;6193394;28;20034;-66
2023/10/09 14:16:42;;;;;;;20.20;3.42;;;30.00;33.00;;;;;;6192047;28;20128;-69
2023/10/09 14:19:47;;;;;;;15.75;2.50;;;29.90;33.10;;;;;;6198480;28;20092;-66
2023/10/09 14:22:52;;;;;;;15.57;2.50;;;29.90;33.20;;;;;;6217817;28;20697;-68
2023/10/09 14:25:56;;;;;;;11.68;2.75;;;29.90;33.30;;;;;;6200148;28;20034;-67
2023/10/09 14:28:58;;;;;;;16.30;2.67;;;29.90;33.30;;;;;;6217053;28;20045;-66
2023/10/09 14:32:02;;;;;;;10.57;2.53;;;29.90;33.40;;;;;;6217722;28;20475;-67
2023/10/09 14:35:12;;;;;;;10.38;2.78;;;29.80;33.40;;;;;;6217364;28;20037;-67
2023/10/09 14:38:13;;;;;;;7.93;2.78;;;29.80;33.50;;;;;;6217327;28;20049;-66
2023/10/09 14:41:14;;;;;;;9.35;2.90;;;29.80;33.60;;;;;;6217940;28;20129;-67
2023/10/09 14:44:16;;;;;;;11.40;3.22;;;29.70;33.60;;;;;;6218109;28;20067;-69
2023/10/09 14:47:18;;;;;;;12.10;3.42;;;29.70;33.70;;;;;;6216835;28;20054;-69
2023/10/09 14:50:22;;;;;;;11.48;2.55;;;29.70;33.80;;;;;;6217905;28;20025;-67
2023/10/09 14:53:26;;;;;;;13.68;3.72;;;29.60;33.80;;;;;;6216917;28;20089;-68
2023/10/09 14:56:30;;;;;;;10.00;2.95;;;29.60;33.90;;;;;;6216959;28;20034;-68
2023/10/09 14:59:31;;;;;;;6.88;2.72;;;29.60;34.00;;;;;;6196325;28;20138;-68
2023/10/09 15:02:32;;;;;;;7.03;2.60;;;29.60;34.10;;;;;;6217905;28;20029;-66
2023/10/09 15:05:34;;;;;;;16.83;2.97;;;29.50;34.10;;;;;;6200069;28;20094;-70
2023/10/09 15:08:36;;;;;;;20.63;3.92;;;29.50;34.20;;;;;;6217840;28;20030;-67
2023/10/09 15:11:40;;;;;;;15.27;2.83;;;29.50;34.20;;;;;;6217769;28;20061;-68
2023/10/09 15:14:40;;;;;;;10.30;2.95;;;29.50;34.40;;;;;;6217912;28;20597;-68
2023/10/09 15:17:47;;;;;;;11.35;2.47;;;29.50;34.40;;;;;;6197008;28;20034;-67
2023/10/09 15:20:49;;;;;;;11.32;3.10;;;29.40;34.50;;;;;;6192534;28;20882;-67
2023/10/09 15:23:51;;;;;;;12.30;3.45;;;29.40;34.50;;;;;;6192527;28;20054;-69
2023/10/09 15:26:52;;;;;;;12.88;2.78;;;29.40;34.60;;;;;;6192141;28;20619;-67
2023/10/09 15:29:53;;;;;;;13.13;3.05;;;29.30;34.60;;;;;;6191941;28;20128;-68
2023/10/09 15:32:56;;;;;;;10.52;3.00;;;29.40;34.80;;;;;;6190266;28;20579;-68
2023/10/09 15:35:58;;;;;;;12.45;3.35;;;29.40;34.80;;;;;;6190512;28;20045;-67
2023/10/09 15:38:59;;;;;;;10.23;3.50;;;29.30;34.90;;;;;;6192108;28;20495;-68
2023/10/09 15:42:04;;;;;;;19.02;3.85;;;29.30;35.00;;;;;;6190564;28;20121;-69
2023/10/09 15:45:06;;;;;;;10.02;3.20;;;29.20;35.10;;;;;;6192081;28;20048;-68
2023/10/09 15:48:07;;;;;;;9.05;3.25;;;29.20;35.30;;;;;;6191003;28;20143;-68
2023/10/09 15:51:14;;;;;;;6.97;2.75;;;29.20;35.40;;;;;;6215340;28;20479;-69
2023/10/09 15:54:19;;;;;;;8.23;2.72;;;29.10;35.40;;;;;;6216051;28;20057;-66
2023/10/09 15:57:21;;;;;;;9.13;2.55;;;29.10;35.50;;;;;;6214522;28;20135;-68
2023/10/09 16:00:28;;;;;;;4.30;2.75;;;29.00;35.50;;;;;;6215711;28;20418;-68
2023/10/09 16:03:28;;;;;;;12.60;3.20;;;29.00;35.50;;;;;;6214980;28;20128;-68
2023/10/09 16:06:31;;;;;;;8.65;2.60;;;29.00;35.60;;;;;;6215543;28;20033;-68
2023/10/09 16:09:37;;;;;;;14.25;3.13;;;29.00;35.70;;;;;;6215352;28;20721;-70
2023/10/09 16:12:39;;;;;;;17.30;3.78;;;28.90;35.70;;;;;;6189199;28;20379;-68
2023/10/09 16:15:43;;;;;;;14.40;3.30;;;28.90;35.90;;;;;;6191078;28;20035;-66
2023/10/09 16:18:44;;;;;;;11.05;3.72;;;28.80;36.00;;;;;;6191315;28;20524;-69
2023/10/09 16:21:46;;;;;;;11.60;3.75;;;28.70;36.30;;;;;;6191287;28;20050;-67
2023/10/09 16:24:47;;;;;;;15.82;3.33;;;28.60;36.40;;;;;;6191620;28;20153;-66
2023/10/09 16:27:50;;;;;;;14.85;3.75;;;28.50;36.60;;;;;;6191902;28;20034;-67
2023/10/09 16:30:51;;;;;;;14.32;3.97;;;28.50;36.90;;;;;;6191085;28;20026;-68
2023/10/09 16:33:51;;;;;;;17.83;4.07;;;28.30;37.10;;;;;;6190799;28;20506;-68
2023/10/09 16:36:52;;;;;;;21.90;4.32;;;28.20;37.40;;;;;;6190349;28;20165;-66
2023/10/09 16:39:59;;;;;;;12.48;3.90;;;28.10;37.80;;;;;;6188631;28;20042;-68
2023/10/09 16:43:01;;;;;;;22.13;3.95;;;28.00;38.30;;;;;;6189006;28;20098;-69
2023/10/09 16:46:08;;;;;;;24.60;3.90;;;27.80;38.60;;;;;;6190332;28;20038;-67
2023/10/09 16:49:11;;;;;;;10.73;3.15;;;27.70;39.00;;;;;;6197576;28;20049;-70
2023/10/09 16:52:12;;;;;;;11.55;2.88;;;27.60;39.30;;;;;;6212997;28;20038;-67
2023/10/09 16:55:14;;;;;;;13.13;3.35;;;27.40;39.60;;;;;;6214825;28;20520;-68
2023/10/09 16:58:15;;;;;;;25.33;3.78;;;27.40;39.80;;;;;;6215060;28;20033;-67
2023/10/09 17:01:20;;;;;;;14.73;3.05;;;27.20;39.90;;;;;;6213406;28;20733;-67
2023/10/09 17:04:23;;;;;;;13.23;2.95;;;27.20;40.10;;;;;;6214324;28;20114;-66
2023/10/09 17:07:27;;;;;;;19.52;3.00;;;27.10;40.20;;;;;;6214286;28;20373;-68
2023/10/09 17:10:34;;;;;;;13.65;3.45;;;27.00;40.20;;;;;;6192786;28;20027;-68
2023/10/09 17:13:37;;;;;;;14.15;4.43;;;26.90;40.30;;;;;;6189807;28;20061;-68
2023/10/09 17:16:41;;;;;;;15.07;4.50;;;26.90;40.40;;;;;;6190267;28;20041;-68
2023/10/09 17:19:43;;;;;;;20.67;3.83;;;26.80;40.60;;;;;;6190245;28;20026;-68
2023/10/09 17:22:48;;;;;;;17.77;3.60;;;26.70;40.60;;;;;;6189251;28;20026;-68
2023/10/09 17:25:56;;;;;;;8.35;3.08;;;26.60;40.80;;;;;;6190304;28;20022;-67
2023/10/09 17:28:59;;;;;;;13.45;3.63;;;26.50;41.30;;;;;;6190132;28;20034;-66
2023/10/09 17:32:00;;;;;;;19.08;3.35;;;26.40;42.30;;;;;;6190179;28;20363;-67
2023/10/09 17:35:02;;;;;;;11.70;3.60;;;26.40;41.70;;;;;;6189899;28;20172;-66
2023/10/09 17:38:04;;;;;;;18.95;4.28;;;26.20;42.10;;;;;;6189621;28;20057;-67
2023/10/09 17:41:08;;;;;;;21.80;4.00;;;26.20;42.60;;;;;;6188033;28;20065;-68
2023/10/09 17:44:09;;;;;;;18.15;4.72;;;26.20;42.70;;;;;;6189341;28;20038;-67
2023/10/09 17:47:11;;;;;;;21.08;3.55;;;26.10;42.80;;;;;;6202537;28;20186;-66
2023/10/09 17:50:11;;;;;;;14.10;4.07;;;26.00;42.80;;;;;;6217597;28;20058;-67
2023/10/09 17:53:13;;;;;;;15.70;4.22;;;25.90;43.10;;;;;;6218321;28;20038;-69